Weather observations for the past three days for
Victoria, Victoria Regional Airport
Imperial (Metric)
Date Time (cdt) Wind (mph) Vis. (mi.) Weather Sky Cond. Temperature (ºF) Relative Humidity Wind Chill (°F) Heat Index (°F) Pressure Precipitation (in)
Air Dwpt 6 hour altimeter (in) sea level (mb) 1 hr 3 hr 6 hr
Max. Min.
31 00:51 SE 7 10.00 A Few Clouds FEW017 78.1 75.9 91.9 78.1 93% 81 29.99 1015.1
30 23:51 SE 5 10.00 Fair CLR 79 75.9 90% 83 29.98 1014.9
30 22:51 SE 7 10.00 Fair CLR 80.1 75.9 87% 85 29.97 1014.7
30 21:51 SE 7 10.00 Fair CLR 81 75.9 85% 87 29.96 1014.3
30 20:51 SE 10 10.00 Fair CLR 82.9 75.9 79% 91 29.93 1013.4
30 19:51 SE 12 G 20 10.00 Fair CLR 87.1 73.9 65% 95 29.92 1012.9
30 18:51 SE 15 10.00 Fair CLR 91.9 73 100.9 89.1 54% 101 29.91 1012.7
30 17:51 SE 20 G 26 10.00 Fair CLR 95 71.1 46% 102 29.9 1012.5
30 16:51 S 15 G 23 10.00 A Few Clouds FEW110 98.1 72 43% 107 29.91 1012.4
30 15:51 SE 13 10.00 Partly Cloudy SCT120 99 71.1 41% 107 29.93 1013.4
30 14:51 SE 17 10.00 Fair CLR 91 73 56% 100 29.96 1014.4
30 13:51 SE 8 10.00 Partly Cloudy SCT055 SCT070 100 70 38% 108 29.98 1014.8
30 12:51 Calm 10.00 Fair CLR 99 71.1 99 73 41% 107 30 1015.6
30 11:51 S 9 10.00 A Few Clouds FEW044 95 71.1 46% 102 30.02 1016.3
30 10:51 S 7 10.00 A Few Clouds FEW029 93 73.9 54% 103 30.03 1016.7
30 09:51 S 5 10.00 A Few Clouds FEW020 88 75 66% 98 30.03 1016.7
30 08:51 SE 5 10.00 Fair CLR 82 77 85% 90 30.02 1016.3
30 07:51 NE 3 6.00 Fog/Mist CLR 75.9 75 97% 75 30 1015.8
30 06:51 Calm 6.00 Fog/Mist CLR 73 72 78.1 73 96% 29.99 1015.3
30 05:51 Calm 7.00 Fair CLR 73 73 100% 29.99 1015.4
30 04:51 E 3 8.00 Fair CLR 73.9 73 97% 29.99 1015.2
30 03:51 Calm 9.00 Fair CLR 73.9 73 97% 29.99 1015.2
30 02:51 Calm 10.00 Fair CLR 75.9 75 97% 75 29.99 1015.2
30 01:51 S 5 10.00 Fair CLR 77 75 94% 78 30 1015.4
30 00:51 S 6 10.00 Fair CLR 78.1 75 91.9 78.1 90% 81 30.01 1015.8
29 23:51 S 5 10.00 Fair CLR 79 75 88% 83 30.01 1015.9
29 22:51 S 7 10.00 Fair CLR 80.1 75 85% 85 30 1015.7
29 21:51 S 7 10.00 Fair CLR 82 75 79% 89 30 1015.5
29 20:51 S 9 10.00 Fair CLR 84 73.9 72% 91 29.97 1014.7
29 19:51 S 8 10.00 Fair CLR 87.1 72 61% 94 29.95 1014.2
29 18:51 S 16 G 22 10.00 Fair CLR 91.9 73 100.9 91.9 54% 101 29.95 1014.1
29 17:51 S 15 G 26 10.00 A Few Clouds FEW047 95 73 49% 105 29.95 1013.9
29 16:51 S 17 G 25 10.00 Fair CLR 97 73 46% 107 29.95 1013.8
29 15:51 S 18 G 28 10.00 Fair CLR 98.1 73 45% 108 29.97 1014.5
29 14:51 SE 21 G 32 10.00 A Few Clouds and Breezy FEW043 FEW050 96.1 71.1 44% 104 30 1015.6
29 13:51 Calm 10.00 Partly Cloudy SCT047 SCT060 99 72 42% 108 30.01 1016.1
29 12:51 SE 9 10.00 Mostly Cloudy BKN042 BKN075 97 73.9 97 73.9 48% 108 30.04 1016.9
29 11:51 S 8 10.00 Partly Cloudy SCT037 97 73.9 48% 108 30.06 1017.6
29 10:51 S 5 10.00 A Few Clouds FEW070 91 75.9 61% 103 30.06 1017.8
29 09:51 Calm 10.00 Partly Cloudy SCT018 90 77 66% 103 30.06 1017.7
29 08:51 E 3 10.00 Fair CLR 81 75.9 85% 87 30.06 1017.6
29 07:51 NE 3 10.00 Fair CLR 75.9 73.9 94% 75 30.05 1017.2
29 06:51 NE 5 9.00 Fair CLR 73.9 73 79 73.9 97% 30.03 1016.8
29 05:51 NE 3 10.00 Fair CLR 73.9 73 97% 30.03 1016.8
29 04:51 NE 5 10.00 Fair CLR 75 73 94% 73 30.03 1016.6
29 03:51 NE 5 9.00 Fair CLR 75.9 75 97% 75 30.01 1016.1
29 02:51 E 5 10.00 Fair CLR 77 75 94% 78 30.01 1016.0
29 01:51 NW 3 10.00 Fair CLR 77 75 94% 78 30.01 1016.0
29 00:51 Calm 10.00 Fair CLR 79 75.9 89.1 79 90% 83 30 1015.6
28 23:51 SE 5 10.00 Fair CLR 80.1 77 90% 86 30.01 1015.8
28 22:51 E 3 10.00 Fair CLR 81 75.9 85% 87 30.03 1016.6
28 21:51 S 12 10.00 Fair CLR 82.9 75.9 79% 91 29.98 1014.9
28 20:51 S 3 10.00 Fair CLR 82 75.9 82% 89 29.99 1015.4
28 19:51 E 10 10.00 Fair CLR 86 75.9 72% 96 29.98 1015.2
28 18:51 E 12 10.00 Fair CLR 89.1 77 102.9 82 68% 102 29.98 1014.9
28 17:51 E 7 10.00 Partly Cloudy FEW055 FEW080 SCT110 86 73.9 67% 94 29.96 1014.3
28 16:51 E 8 10.00 Fair CLR 93.9 66 40% 97 29.96 1014.2
28 15:51 S 20 G 25 10.00 Thunderstorm FEW060 84.9 71.1 63% 90 29.96 1014.3
28 14:51 Calm 10.00 Thunderstorm in Vicinity BKN065 BKN080 BKN100 99 72 42% 108 29.98 1015.0
28 13:51 Vrbl 6 10.00 Partly Cloudy SCT055 99 70 39% 106 30 1015.6
28 12:51 SW 3 10.00 Partly Cloudy SCT050 100 71.1 100 75.9 39% 109 30.03 1016.5
28 11:51 W 3 10.00 Fair CLR 95 72 47% 103 30.04 1016.9
28 10:51 Vrbl 7 10.00 Fair CLR 93 73 52% 102 30.04 1017.0
28 09:51 SW 10 10.00 Fair CLR 89.1 75 63% 99 30.04 1017.0
28 08:51 S 6 10.00 Fair CLR 84 78.1 82% 95 30.03 1016.6
28 07:51 Calm 10.00 Fair CLR 79 75.9 90% 83 30.02 1016.2
28 06:51 Calm 10.00 Fair CLR 75.9 75 81 75.9 97% 75 30 1015.8
28 05:51 E 3 10.00 Fair CLR 78.1 75 90% 81 29.99 1015.3
28 04:51 S 3 10.00 A Few Clouds FEW019 79 75.9 90% 83 29.99 1015.2
28 03:51 Calm 10.00 Partly Cloudy FEW085 SCT100 79 75.9 90% 83 29.99 1015.1
28 02:51 Calm 10.00 Mostly Cloudy FEW019 BKN090 80.1 75.9 87% 85 29.99 1015.1
28 01:51 Calm 10.00 Partly Cloudy SCT090 81 75.9 85% 87 29.99 1015.3
Date Time (cdt) Wind (mph) Vis. (mi.) Weather Sky Cond. Air Dwpt Max. Min. Relative Humidity Wind Chill (°F) Heat Index (°F) altimeter (in) sea level (mb) 1 hr 3 hr 6 hr
6 hour
Temperature (ºF) Pressure Precipitation (in)